ADDS TAF Data INFO
IDs: Format: Raw Decoded Include METARs

Data at: 1931 UTC 23 Jun 2018

KPHF 231729Z 2318/2418 24012KT P6SM SCT045
  FM231900 22010KT P6SM VCTS BKN045CB
  FM232300 21008KT P6SM VCSH SCT040
  FM240300 21008KT P6SM SCT045
  FM241100 22006KT P6SM BKN050
  FM241500 23010KT P6SM SCT050